Latest Weather Observations for Hay Airport

IDN60801

Issued at 8:02 pm EST Saturday 23 May 2015 (issued every 30 minutes, with the page automatically refreshed every 10 minutes)

About weather observations | Map of weather stations | Latest weather observations for NSW | Other Formats
Station Details ID: 075019 Name: HAY AIRPORT AWS Lat: -34.54 Lon: 144.83 Height: 92.0 m
Data from the previous 72 hours. | See also: Recent months for locations in New South Wales
Date/Time
EST
Temp
°C
App
Temp
°C
Dew
Point
Rel
Hum
%
Delta-T
°C
Wind Press
QNH
hPa
Press
MSL
hPa
Rain
since 9 am
mm
Dir
 
Spd
km/h
Gust
km/h
Spd
kts
Gust
kts
23/08:00pm 8.0 7.0 5.5 84 1.1 CALM 0 0 0 0 1030.1 1030.1 0.0
23/07:30pm 8.5 7.4 4.9 78 1.6 CALM 0 0 0 0 1029.9 1029.9 0.0
23/07:00pm 9.2 8.1 5.0 75 1.9 CALM 0 0 0 0 1029.9 1029.9 0.0
23/06:30pm 10.6 9.6 5.4 70 2.4 CALM 0 0 0 0 1029.8 1029.8 0.0
23/05:30pm 13.3 12.2 5.2 58 3.8 CALM 0 0 0 0 1029.3 1029.3 0.0
23/05:00pm 15.8 14.7 5.1 49 5.1 CALM 0 0 0 0 1029.1 1029.1 0.0
23/04:30pm 18.0 17.1 5.9 45 5.9 CALM 0 0 0 0 1029.1 1029.1 0.0
23/04:00pm 17.8 16.8 5.7 45 5.9 CALM 0 0 0 0 1029.3 1029.3 0.0
23/03:30pm 17.8 16.8 5.4 44 6.0 CALM 0 0 0 0 1029.2 1029.2 0.0
23/03:00pm 18.3 17.3 5.8 44 6.1 CALM 0 0 0 0 1029.2 1029.2 0.0
23/02:30pm 17.4 15.7 6.0 47 5.6 WSW 4 9 2 5 1029.3 1029.3 0.0
23/02:00pm 17.1 15.5 6.3 49 5.3 W 4 9 2 5 1029.6 1029.6 0.0
23/01:30pm 16.7 15.8 5.9 49 5.3 CALM 0 0 0 0 1029.6 1029.6 0.0
23/01:00pm 16.6 15.4 6.4 51 5.0 NW 2 7 1 4 1030.1 1030.1 0.0
23/12:30pm 15.5 14.4 7.0 57 4.2 SW 2 9 1 5 1030.4 1030.5 0.0
23/12:00pm 14.7 13.2 6.8 59 3.8 WSW 4 9 2 5 1030.8 1030.9 0.0
23/11:30am 14.7 13.1 6.5 58 4.0 NNW 4 7 2 4 1031.1 1031.2 0.0
23/11:00am 13.5 12.7 6.6 63 3.3 CALM 0 4 0 2 1031.3 1031.4 0.0
23/10:30am 11.8 9.9 6.7 71 2.4 E 6 9 3 5 1031.4 1031.5 0.0
23/09:30am 7.8 4.6 5.3 84 1.1 SE 11 13 6 7 1031.5 1031.6 0.0
23/09:00am 6.6 3.8 5.2 91 0.6 SE 9 13 5 7 1031.5 1031.6 0.0
23/08:30am 4.6 2.0 4.2 97 0.2 SSE 7 9 4 5 1031.3 1031.4 0.0
23/08:00am 2.9 0.6 2.8 99 0.0 S 4 7 2 4 1031.0 1031.1 0.0
23/07:30am 1.6 -1.3 1.5 99 0.0 S 6 7 3 4 1030.6 1030.7 0.0
23/07:00am 1.6 -1.3 1.3 98 0.1 SSE 6 7 3 4 1030.2 1030.2 0.0
23/06:30am 2.0 -1.0 1.7 98 0.1 SSE 7 9 4 5 1029.8 1029.8 0.0
23/06:00am 2.1 -0.9 1.7 97 0.2 S 7 9 4 5 1029.6 1029.6 0.0
23/05:30am 2.7 -0.6 2.4 98 0.1 SSE 9 13 5 7 1029.4 1029.4 0.0
23/05:00am 2.6 -0.7 2.3 98 0.1 S 9 13 5 7 1029.3 1029.3 0.0
23/04:30am 2.5 -0.5 2.1 97 0.2 SSW 7 9 4 5 1029.3 1029.3 0.0
23/04:00am 2.7 -0.6 2.3 97 0.2 SW 9 13 5 7 1029.1 1029.1 0.0
23/03:30am 3.1 -0.2 2.5 96 0.2 WSW 9 11 5 6 1029.2 1029.2 0.0
23/03:00am 3.5 -0.1 2.9 96 0.2 SW 11 13 6 7 1029.1 1029.1 0.0
23/02:30am 4.0 0.8 3.1 94 0.4 SW 9 11 5 6 1029.4 1029.4 0.0
23/02:00am 4.5 1.8 3.6 94 0.4 SSW 7 11 4 6 1029.4 1029.4 0.0
23/01:30am 4.7 1.6 3.7 93 0.4 SSW 9 13 5 7 1029.4 1029.4 0.0
23/01:00am 5.5 2.2 4.5 93 0.4 SSW 11 13 6 7 1029.4 1029.4 0.0
23/12:30am 5.7 2.4 4.3 91 0.6 SSW 11 13 6 7 1029.4 1029.4 0.0
23/12:00am 7.1 3.6 5.3 88 0.8 S 13 17 7 9 1029.4 1029.4 0.0
 
Date/Time
EST
Temp
°C
App
Temp
°C
Dew
Point
Rel
Hum
%
Delta-T
°C
Wind Press
QNH
hPa
Press
MSL
hPa
Rain
since 9 am
mm
Dir
 
Spd
km/h
Gust
km/h
Spd
kts
Gust
kts
22/11:30pm 7.4 3.5 5.4 87 0.9 S 15 19 8 10 1029.3 1029.3 0.0
22/11:00pm 7.0 3.0 5.0 87 0.9 S 15 20 8 11 1029.2 1029.2 0.0
22/10:30pm 7.2 3.6 4.9 85 1.0 SSW 13 15 7 8 1029.4 1029.4 0.0
22/10:00pm 8.1 4.2 5.2 82 1.3 S 15 19 8 10 1029.1 1029.1 0.0
22/09:30pm 8.3 4.0 5.2 81 1.4 SSW 17 19 9 10 1028.9 1028.9 0.0
22/09:00pm 9.1 4.8 5.3 77 1.7 S 17 20 9 11 1028.7 1028.7 0.0
22/08:30pm 9.6 5.3 5.2 74 2.0 SSW 17 22 9 12 1028.6 1028.6 0.0
22/08:00pm 9.3 5.6 4.5 72 2.1 SSW 13 19 7 10 1028.4 1028.4 0.0
22/07:30pm 9.4 5.7 4.2 70 2.3 SSW 13 13 7 7 1028.2 1028.2 0.0
22/07:00pm 11.1 7.4 4.3 63 3.0 S 13 17 7 9 1028.1 1028.1 0.0
22/06:30pm 12.4 8.3 4.6 59 3.6 S 15 19 8 10 1027.6 1027.6 0.0
22/06:00pm 13.0 8.5 4.2 55 4.0 SSW 17 20 9 11 1027.3 1027.3 0.0
22/05:30pm 14.3 9.3 4.6 52 4.5 SSW 20 24 11 13 1026.9 1026.9 0.0
22/05:00pm 15.9 10.3 5.2 49 5.1 SSW 24 30 13 16 1026.5 1026.5 0.0
22/04:30pm 17.2 11.8 6.4 49 5.3 SSW 24 32 13 17 1026.3 1026.3 0.0
22/04:00pm 17.9 13.0 7.0 49 5.4 SSW 22 32 12 17 1026.1 1026.1 0.0
22/03:30pm 18.4 14.1 7.8 50 5.4 S 20 26 11 14 1025.9 1025.9 0.0
22/03:00pm 18.2 13.3 7.0 48 5.6 S 22 30 12 16 1025.6 1025.6 0.0
22/02:30pm 18.4 13.6 7.2 48 5.7 SSW 22 32 12 17 1025.4 1025.4 0.0
22/02:00pm 18.6 14.3 8.0 50 5.4 S 20 28 11 15 1025.2 1025.2 0.0
22/01:30pm 18.5 14.1 7.6 49 5.6 SSE 20 24 11 13 1025.1 1025.1 0.0
22/01:00pm 17.9 13.7 7.3 50 5.3 SSE 19 30 10 16 1025.3 1025.3 0.0
22/12:30pm 17.7 13.1 8.3 54 4.8 SSE 22 28 12 15 1025.5 1025.5 0.0
22/12:00pm 17.1 12.3 8.8 58 4.3 S 24 33 13 18 1025.8 1025.8 0.0
22/11:30am 16.0 11.5 8.7 62 3.7 SSE 22 30 12 16 1026.2 1026.2 0.0
22/11:00am 15.3 11.2 8.8 65 3.3 SSE 20 26 11 14 1026.4 1026.4 0.0
22/10:30am 14.4 9.6 8.8 69 2.8 SSE 24 30 13 16 1026.3 1026.3 0.0
22/10:00am 12.9 8.1 8.8 76 2.1 S 24 32 13 17 1026.0 1026.0 0.0
22/09:30am 11.8 7.3 8.6 81 1.6 S 22 30 12 16 1025.7 1025.7 0.0
22/09:00am 10.3 6.1 8.4 88 0.9 S 20 26 11 14 1025.5 1025.5 0.0
22/08:30am 8.5 5.2 8.1 97 0.2 SSW 15 20 8 11 1025.3 1025.3 0.0
22/08:00am 6.9 4.1 6.8 99 0.0 SW 11 15 6 8 1025.0 1025.0 0.0
22/07:30am 5.9 2.9 5.8 99 0.0 SW 11 13 6 7 1024.7 1024.7 0.0
22/07:00am 6.3 3.0 6.2 99 0.0 SW 13 17 7 9 1024.2 1024.2 0.0
22/06:30am 6.6 3.3 6.5 99 0.0 SSW 13 17 7 9 1023.7 1023.7 0.0
22/06:00am 6.3 2.9 6.0 98 0.1 SW 13 17 7 9 1023.5 1023.5 0.0
22/05:30am 6.4 3.0 6.1 98 0.1 SW 13 17 7 9 1023.3 1023.3 0.0
22/05:00am 6.5 2.8 6.1 97 0.2 SW 15 19 8 10 1023.3 1023.3 0.0
22/04:30am 6.8 3.5 6.2 96 0.3 SW 13 15 7 8 1023.0 1023.0 0.0
22/04:00am 7.0 4.4 6.3 95 0.3 SSW 9 13 5 7 1023.1 1023.1 0.0
22/03:30am 7.7 4.4 6.6 93 0.5 SW 13 17 7 9 1023.0 1023.0 0.0
22/03:00am 8.4 4.5 7.0 91 0.7 SW 17 22 9 12 1023.0 1023.0 0.0
22/02:30am 8.7 4.3 7.2 90 0.7 SW 20 26 11 14 1022.8 1022.8 0.0
22/02:00am 8.9 4.6 7.2 89 0.8 SW 19 24 10 13 1022.9 1022.9 0.0
22/01:30am 8.7 4.8 7.2 90 0.7 WSW 17 20 9 11 1022.8 1022.8 0.0
22/01:00am 9.0 5.1 7.3 89 0.8 WSW 17 20 9 11 1023.1 1023.1 0.0
22/12:30am 9.5 6.1 7.6 88 0.9 SW 15 17 8 9 1023.3 1023.3 0.0
22/12:00am 9.7 6.7 7.5 86 1.0 SW 13 17 7 9 1023.3 1023.3 0.0
 
Date/Time
EST
Temp
°C
App
Temp
°C
Dew
Point
Rel
Hum
%
Delta-T
°C
Wind Press
QNH
hPa
Press
MSL
hPa
Rain
since 9 am
mm
Dir
 
Spd
km/h
Gust
km/h
Spd
kts
Gust
kts
21/11:30pm 10.2 6.8 7.6 84 1.3 SW 15 19 8 10 1023.2 1023.2 0.0
21/11:00pm 10.3 7.3 7.7 84 1.2 SW 13 15 7 8 1023.0 1023.0 0.0
21/10:30pm 10.6 7.2 7.8 83 1.4 SW 15 19 8 10 1023.0 1023.0 0.0
21/10:00pm 11.2 7.5 7.9 80 1.6 SW 17 22 9 12 1022.8 1022.8 0.0
21/09:30pm 11.8 7.6 8.1 78 1.8 SSW 20 28 11 15 1022.8 1022.8 0.0
21/09:00pm 12.1 7.1 8.0 76 2.0 SW 24 30 13 16 1022.8 1022.8 0.0
21/08:30pm 12.2 8.2 8.3 77 1.9 SW 19 24 10 13 1022.6 1022.6 0.0
21/08:00pm 12.7 9.1 8.4 75 2.1 SW 17 22 9 12 1022.4 1022.5 0.0
21/07:30pm 12.7 9.5 8.6 76 2.1 SW 15 20 8 11 1022.3 1022.4 0.0
21/07:00pm 12.7 9.9 8.6 76 2.0 SW 13 17 7 9 1022.2 1022.3 0.0
21/06:30pm 13.2 10.4 8.5 73 2.4 SSW 13 17 7 9 1021.9 1022.0 0.0
21/06:00pm 13.5 10.3 8.6 72 2.5 SW 15 17 8 9 1021.7 1021.8 0.0
21/05:30pm 13.4 9.8 8.5 72 2.5 SSW 17 19 9 10 1021.4 1021.5 0.0
21/05:00pm 13.5 9.6 8.6 72 2.5 SSW 19 22 10 12 1021.1 1021.1 0.0
21/04:30pm 13.6 9.5 8.7 72 2.5 SSW 20 26 11 14 1020.9 1020.9 0.0
21/04:00pm 13.7 8.9 8.7 72 2.5 SSW 24 30 13 16 1020.8 1020.8 0.0
21/03:30pm 13.8 8.6 8.8 72 2.5 SSW 26 32 14 17 1020.6 1020.6 0.0
21/03:00pm 13.9 9.5 8.9 72 2.5 SSW 22 32 12 17 1020.5 1020.5 0.0
21/02:30pm 13.7 10.1 8.5 71 2.6 SW 17 22 9 12 1020.5 1020.5 0.0
21/02:00pm 13.6 10.1 8.7 72 2.5 SW 17 22 9 12 1020.5 1020.5 0.0
21/01:30pm 13.9 10.8 8.7 71 2.6 SW 15 20 8 11 1020.7 1020.7 0.0
21/01:00pm 13.9 10.8 8.9 72 2.5 SSW 15 20 8 11 1020.9 1020.9 0.0
21/12:30pm 13.9 10.5 9.1 73 2.4 SSW 17 24 9 13 1021.1 1021.1 0.0
21/12:00pm 13.2 9.4 9.1 76 2.1 S 19 24 10 13 1021.5 1021.6 0.0
21/11:30am 12.7 9.7 9.2 79 1.8 SW 15 20 8 11 1021.9 1022.0 0.0
21/11:00am 12.3 8.5 9.0 80 1.7 S 19 24 10 13 1022.3 1022.4 0.0
21/10:30am 12.1 8.3 8.9 81 1.6 SSW 19 22 10 12 1022.1 1022.2 0.0
21/10:00am 11.7 7.3 8.9 83 1.4 SSW 22 28 12 15 1021.8 1021.9 0.0
21/09:30am 11.6 6.9 9.2 85 1.2 SSW 24 28 13 15 1021.6 1021.7 0.0
21/09:00am 11.1 7.2 9.5 90 0.8 SSW 20 26 11 14 1021.5 1021.6 0.2
21/08:30am 10.9 7.3 9.8 93 0.6 SSW 19 24 10 13 1021.2 1021.3 0.2
21/08:00am 10.0 6.4 9.7 98 0.2 SSW 19 26 10 14 1020.7 1020.7 0.2
21/07:30am 8.8 6.0 8.7 99 0.0 SSW 13 17 7 9 1020.5 1020.5 0.2
21/07:00am 8.8 6.0 8.4 97 0.2 SSW 13 17 7 9 1020.5 1020.5 0.2
21/06:30am 9.3 6.2 8.7 96 0.3 SSW 15 19 8 10 1020.3 1020.3 0.2
21/06:00am 9.3 5.7 8.5 95 0.4 SSW 17 20 9 11 1020.0 1020.0 0.2
21/05:30am 9.3 5.7 8.5 95 0.4 SSW 17 22 9 12 1019.7 1019.7 0.2
21/05:00am 9.4 5.9 8.6 95 0.4 SSW 17 22 9 12 1019.5 1019.5 0.2
21/04:30am 9.1 5.5 8.5 96 0.3 SW 17 20 9 11 1019.5 1019.5 0.2
21/04:00am 9.1 6.8 9.0 99 0.0 SW 11 15 6 8 1019.6 1019.6 0.2
21/03:30am 9.1 6.8 9.0 99 0.0 WSW 11 13 6 7 1019.6 1019.6 0.2
21/03:00am 8.8 6.8 8.5 98 0.1 SW 9 13 5 7 1019.7 1019.7 0.2
21/02:30am 9.4 6.4 9.3 99 0.0 SW 15 20 8 11 1019.5 1019.5 0.2
21/02:00am 9.7 6.8 9.6 99 0.0 SW 15 19 8 10 1019.5 1019.5 0.2
21/01:30am 10.2 7.0 10.0 99 0.1 WSW 17 20 9 11 1019.3 1019.3 0.2
21/01:00am 10.1 8.0 9.8 98 0.2 WSW 11 15 6 8 1019.1 1019.1 0.2
21/12:30am 10.8 8.1 10.3 97 0.3 WSW 15 17 8 9 1019.0 1019.0 0.2
21/12:00am 10.6 7.4 10.1 97 0.3 W 17 20 9 11 1018.8 1018.8 0.2
 
Date/Time
EST
Temp
°C
App
Temp
°C
Dew
Point
Rel
Hum
%
Delta-T
°C
Wind Press
QNH
hPa
Press
MSL
hPa
Rain
since 9 am
mm
Dir
 
Spd
km/h
Gust
km/h
Spd
kts
Gust
kts
20/11:30pm 9.1 6.6 8.2 94 0.4 WNW 11 15 6 8 1018.8 1018.8 0.2
20/11:00pm 9.8 6.6 8.6 92 0.6 WNW 15 17 8 9 1018.6 1018.6 0.2
20/10:30pm 10.7 7.7 9.1 90 0.8 W 15 20 8 11 1018.9 1018.9 0.2
20/10:00pm 10.6 7.8 8.7 88 0.9 W 13 17 7 9 1019.2 1019.2 0.2
20/09:30pm 10.3 7.3 7.7 84 1.3 W 13 15 7 8 1019.1 1019.1 0.2
20/09:00pm 10.8 7.7 7.3 79 1.7 W 13 17 7 9 1018.8 1018.8 0.2
20/08:30pm 11.2 8.1 7.3 77 1.9 W 13 19 7 10 1018.7 1018.7 0.2

Other Formats:

Comma delimited format used in spreadsheet applications
http://www.bom.gov.au/fwo/IDN60801/IDN60801.94702.axf

JavaScript Object Notation format (JSON) in row-major order
http://www.bom.gov.au/fwo/IDN60801/IDN60801.94702.json